Aquarius Ace — 3FHB8 — position and weather

sailwx.info

Track history (hours):
 
Tides and Currents Weather Stations Pressure Air Temp Water Temp Dewpoint Dewpoint Depression Visibility Wind Speed Wind Dir Waves Ship Positions

Aquarius Ace

Last reported at 2017-Sep-21 23:45 UTC. Time now 2017-Sep-22 02:47 UTC.
Position N 49°52' W 002°34'.

Length 174 m; draft 7.5 m.

Type: Cargo ship. MMSI: 354123000.

Date/timePositionNaut miles runAvg speedWind from/ knotsBaromVisibWave heightAir tempDewpointWater temp
2017-Sep-21 23:45N 49°52' W 002°34'415.7
2017-Sep-21 23:30N 49°51' W 002°40'815.8
2017-Sep-21 23:00N 49°49' W 002°52'816.0
2017-Sep-21 22:29N 49°47' W 003°04'816.2
2017-Sep-21 22:00N 49°43' W 003°14'816.2
2017-Sep-21 21:30N 49°38' W 003°25'916.3
2017-Sep-21 20:59N 49°34' W 003°36'916.4
2017-Sep-21 20:27N 49°29' W 003°47'816.5
2017-Sep-21 20:00N 49°25' W 003°57'1516.8
2017-Sep-21 19:05N 49°17' W 004°17'1617.5
2017-Sep-21 18:09N 49°09' W 004°39'417.7
2017-Sep-21 17:54N 49°07' W 004°45'717.9
2017-Sep-21 17:30N 49°03' W 004°54'918.0
2017-Sep-21 17:00N 48°59' W 005°06'917.9
2017-Sep-21 16:30N 48°54' W 005°18'917.9
2017-Sep-21 16:00N 48°49' W 005°29'1216.9
2017-Sep-21 15:19N 48°40' W 005°40'49715.7
2017-Sep-20 07:34N 40°55' W 009°49'115.1
2017-Sep-20 07:30N 40°54' W 009°49'1215.5
2017-Sep-20 06:45N 40°43' W 009°49'415.2
2017-Sep-20 06:30N 40°39' W 009°49'815.3
2017-Sep-20 06:00N 40°32' W 009°49'815.5
2017-Sep-20 05:30N 40°24' W 009°49'815.5
2017-Sep-20 05:00N 40°16' W 009°49'815.3
2017-Sep-20 04:30N 40°08' W 009°50'815.3
2017-Sep-20 04:00N 40°01' W 009°50'815.5
2017-Sep-20 03:30N 39°53' W 009°50'815.6
2017-Sep-20 03:00N 39°45' W 009°50'815.4
2017-Sep-20 02:30N 39°37' W 009°50'815.2
2017-Sep-20 02:00N 39°30' W 009°50'815.3
2017-Sep-20 01:30N 39°22' W 009°51'815.3
2017-Sep-20 01:00N 39°15' W 009°51'815.4
2017-Sep-20 00:30N 39°07' W 009°50'815.1
2017-Sep-20 00:00N 38°59' W 009°50'815.4
2017-Sep-19 23:30N 38°52' W 009°50'815.6
2017-Sep-19 23:00N 38°44' W 009°50'815.2
2017-Sep-19 22:30N 38°36' W 009°48'714.9
2017-Sep-19 22:00N 38°29' W 009°46'714.8
2017-Sep-19 21:30N 38°22' W 009°44'714.7
2017-Sep-19 21:00N 38°15' W 009°42'714.5
2017-Sep-19 20:30N 38°08' W 009°41'714.6
2017-Sep-19 20:00N 38°00' W 009°38'714.5
2017-Sep-19 19:30N 37°54' W 009°36'714.4
2017-Sep-19 19:00N 37°46' W 009°34'714.4
2017-Sep-19 18:30N 37°40' W 009°32'714.7
2017-Sep-19 18:00N 37°32' W 009°30'714.4
2017-Sep-19 17:30N 37°25' W 009°29'815.1
2017-Sep-19 17:00N 37°18' W 009°27'815.2
2017-Sep-19 16:30N 37°11' W 009°23'815.4
2017-Sep-19 16:00N 37°03' W 009°21'815.1
2017-Sep-19 15:30N 36°56' W 009°19'814.8
2017-Sep-19 15:00N 36°49' W 009°14'815.7
2017-Sep-19 14:30N 36°44' W 009°07'815.7
2017-Sep-19 14:00N 36°41' W 008°58'815.6
2017-Sep-19 13:31N 36°39' W 008°49'815.1
2017-Sep-19 13:00N 36°36' W 008°40'715.1
2017-Sep-19 12:30N 36°34' W 008°31'815.4
2017-Sep-19 11:58N 36°31' W 008°21'715.6
2017-Sep-19 11:30N 36°29' W 008°13'915.6
2017-Sep-19 10:54N 36°27' W 008°01'1315.7
2017-Sep-19 10:05N 36°23' W 007°46'10415.4
2017-Sep-19 03:21N 35°57' W 005°42'613.5
2017-Sep-19 02:53N 35°57' W 005°34'4 0.2
2017-Sep-18 05:03N 35°54' W 005°35'4 2.1
2017-Sep-18 03:17N 35°57' W 005°32'1 4.5
2017-Sep-18 03:00N 35°58' W 005°32'4 7.4
2017-Sep-18 02:31N 35°59' W 005°28'713.7
2017-Sep-18 02:00N 36°01' W 005°20'713.7
2017-Sep-18 01:30N 36°02' W 005°11'21114.4
2017-Sep-17 10:55N 37°13' W 001°04'716.3
2017-Sep-17 10:30N 37°17' W 000°58'816.2
2017-Sep-17 10:00N 37°23' W 000°50'816.4
2017-Sep-17 09:30N 37°28' W 000°42'816.5
2017-Sep-17 09:00N 37°33' W 000°34'816.3
2017-Sep-17 08:30N 37°40' W 000°28'816.4
2017-Sep-17 08:00N 37°47' W 000°23'816.3
2017-Sep-17 07:30N 37°54' W 000°17'816.3
2017-Sep-17 07:00N 38°01' W 000°12'11716.8
2017-Sep-17 00:01N 39°42' E 001°04'016.8
2017-Sep-17 00:00N 39°42' E 001°04'917.4
2017-Sep-16 23:30N 39°50' E 001°10'917.3
2017-Sep-16 23:00N 39°57' E 001°15'917.4
2017-Sep-16 22:30N 40°05' E 001°20'917.6
2017-Sep-16 22:00N 40°13' E 001°25'917.3
2017-Sep-16 21:30N 40°21' E 001°30'816.9
2017-Sep-16 21:00N 40°28' E 001°35'816.7
2017-Sep-16 20:30N 40°35' E 001°41'816.6
2017-Sep-16 20:00N 40°43' E 001°46'816.5
2017-Sep-16 19:30N 40°50' E 001°52'816.8
2017-Sep-16 19:00N 40°57' E 001°57'816.7
2017-Sep-16 18:30N 41°05' E 002°02'816.6
2017-Sep-16 18:00N 41°12' E 002°07'7 0.5
2017-Sep-16 03:16N 41°18' E 002°11'1 4.3
2017-Sep-16 03:00N 41°17' E 002°11'1 2.8
2017-Sep-16 02:28N 41°16' E 002°12'4 7.6
2017-Sep-16 01:58N 41°13' E 002°15'6 0.7
2017-Sep-15 17:32N 41°12' E 002°23'716.4
2017-Sep-15 17:08N 41°09' E 002°31'217.0
2017-Sep-15 17:00N 41°08' E 002°33'917.2
2017-Sep-15 16:30N 41°04' E 002°43'917.2
2017-Sep-15 16:00N 40°59' E 002°53'917.2
2017-Sep-15 15:30N 40°55' E 003°03'816.2
2017-Sep-15 15:00N 40°51' E 003°12'815.3
2017-Sep-15 14:30N 40°48' E 003°21'27016.2
2017-Sep-14 21:51N 38°36' E 008°29'515.5
2017-Sep-14 21:30N 38°34' E 008°34'1015.7
2017-Sep-14 20:53N 38°29' E 008°45'3116.0
2017-Sep-14 18:58N 38°14' E 009°19'716.1
2017-Sep-14 18:30N 38°11' E 009°28'816.1
2017-Sep-14 18:00N 38°07' E 009°37'1016.2
2017-Sep-14 17:25N 38°03' E 009°48'716.3
2017-Sep-14 17:00N 37°59' E 009°55'10616.6
2017-Sep-14 10:37N 37°10' E 011°53'216.6
2017-Sep-14 10:30N 37°09' E 011°55'1316.6
2017-Sep-14 09:44N 37°05' E 012°10'516.2
2017-Sep-14 09:26N 37°04' E 012°16'716.0
2017-Sep-14 08:59N 37°01' E 012°25'816.0
2017-Sep-14 08:30N 36°59' E 012°34'815.8
2017-Sep-14 08:00N 36°56' E 012°43'815.8
2017-Sep-14 07:30N 36°53' E 012°52'815.8
2017-Sep-14 07:00N 36°51' E 013°02'816.0
2017-Sep-14 06:31N 36°48' E 013°11'816.5
2017-Sep-14 06:00N 36°46' E 013°21'815.6
2017-Sep-14 05:30N 36°44' E 013°30'815.3
2017-Sep-14 05:00N 36°41' E 013°39'715.0
2017-Sep-14 04:30N 36°39' E 013°48'815.0
2017-Sep-14 03:59N 36°36' E 013°57'715.3
2017-Sep-14 03:30N 36°34' E 014°06'815.6
2017-Sep-14 03:00N 36°32' E 014°15'815.4
2017-Sep-14 02:28N 36°29' E 014°25'715.0
2017-Sep-14 02:00N 36°28' E 014°34'815.4
2017-Sep-14 01:30N 36°26' E 014°43'815.4
2017-Sep-14 01:00N 36°25' E 014°52'815.5
2017-Sep-14 00:30N 36°25' E 015°02'915.5
2017-Sep-13 23:56N 36°24' E 015°13'716.1
2017-Sep-13 23:30N 36°24' E 015°22'816.4
2017-Sep-13 23:00N 36°23' E 015°32'816.3
2017-Sep-13 22:30N 36°23' E 015°42'816.2
2017-Sep-13 21:59N 36°23' E 015°52'1016.0
2017-Sep-13 21:21N 36°22' E 016°05'37914.7
2017-Sep-12 19:31N 36°60' E 023°54'116.5
2017-Sep-12 19:28N 37°00' E 023°55'816.3
2017-Sep-12 19:00N 37°07' E 024°01'816.2
2017-Sep-12 18:31N 37°13' E 024°06'815.8
2017-Sep-12 18:01N 37°19' E 024°12'915.4
2017-Sep-12 17:27N 37°26' E 024°19'14915.8
2017-Sep-12 08:03N 39°40' E 025°42'1416.9
2017-Sep-12 07:13N 39°52' E 025°50'10614.3
2017-Sep-11 23:47N 40°47' E 027°49'  
Track history (hours):
 
Tides and Currents Weather Stations Pressure Air Temp Water Temp Dewpoint Dewpoint Depression Visibility Wind Speed Wind Dir Waves Ship Positions

Aquarius Ace

Last reported at 2017-Sep-21 23:45 UTC. Time now 2017-Sep-22 02:47 UTC.
Position N 49°52' W 002°34'.

Length 174 m; draft 7.5 m.

Type: Cargo ship. MMSI: 354123000.

Date/timePositionNaut miles runAvg speedWind from/ knotsBaromVisibWave heightAir tempDewpointWater temp
2017-Sep-21 23:45N 49°52' W 002°34'415.7
2017-Sep-21 23:30N 49°51' W 002°40'815.8
2017-Sep-21 23:00N 49°49' W 002°52'816.0
2017-Sep-21 22:29N 49°47' W 003°04'816.2
2017-Sep-21 22:00N 49°43' W 003°14'816.2
2017-Sep-21 21:30N 49°38' W 003°25'916.3
2017-Sep-21 20:59N 49°34' W 003°36'916.4
2017-Sep-21 20:27N 49°29' W 003°47'816.5
2017-Sep-21 20:00N 49°25' W 003°57'1516.8
2017-Sep-21 19:05N 49°17' W 004°17'1617.5
2017-Sep-21 18:09N 49°09' W 004°39'417.7
2017-Sep-21 17:54N 49°07' W 004°45'717.9
2017-Sep-21 17:30N 49°03' W 004°54'918.0
2017-Sep-21 17:00N 48°59' W 005°06'917.9
2017-Sep-21 16:30N 48°54' W 005°18'917.9
2017-Sep-21 16:00N 48°49' W 005°29'1216.9
2017-Sep-21 15:19N 48°40' W 005°40'49715.7
2017-Sep-20 07:34N 40°55' W 009°49'115.1
2017-Sep-20 07:30N 40°54' W 009°49'1215.5
2017-Sep-20 06:45N 40°43' W 009°49'415.2
2017-Sep-20 06:30N 40°39' W 009°49'815.3
2017-Sep-20 06:00N 40°32' W 009°49'815.5
2017-Sep-20 05:30N 40°24' W 009°49'815.5
2017-Sep-20 05:00N 40°16' W 009°49'815.3
2017-Sep-20 04:30N 40°08' W 009°50'815.3
2017-Sep-20 04:00N 40°01' W 009°50'815.5
2017-Sep-20 03:30N 39°53' W 009°50'815.6
2017-Sep-20 03:00N 39°45' W 009°50'815.4
2017-Sep-20 02:30N 39°37' W 009°50'815.2
2017-Sep-20 02:00N 39°30' W 009°50'815.3
2017-Sep-20 01:30N 39°22' W 009°51'815.3
2017-Sep-20 01:00N 39°15' W 009°51'815.4
2017-Sep-20 00:30N 39°07' W 009°50'815.1
2017-Sep-20 00:00N 38°59' W 009°50'815.4
2017-Sep-19 23:30N 38°52' W 009°50'815.6
2017-Sep-19 23:00N 38°44' W 009°50'815.2
2017-Sep-19 22:30N 38°36' W 009°48'714.9
2017-Sep-19 22:00N 38°29' W 009°46'714.8
2017-Sep-19 21:30N 38°22' W 009°44'714.7
2017-Sep-19 21:00N 38°15' W 009°42'714.5
2017-Sep-19 20:30N 38°08' W 009°41'714.6
2017-Sep-19 20:00N 38°00' W 009°38'714.5
2017-Sep-19 19:30N 37°54' W 009°36'714.4
2017-Sep-19 19:00N 37°46' W 009°34'714.4
2017-Sep-19 18:30N 37°40' W 009°32'714.7
2017-Sep-19 18:00N 37°32' W 009°30'714.4
2017-Sep-19 17:30N 37°25' W 009°29'815.1
2017-Sep-19 17:00N 37°18' W 009°27'815.2
2017-Sep-19 16:30N 37°11' W 009°23'815.4
2017-Sep-19 16:00N 37°03' W 009°21'815.1
2017-Sep-19 15:30N 36°56' W 009°19'814.8
2017-Sep-19 15:00N 36°49' W 009°14'815.7
2017-Sep-19 14:30N 36°44' W 009°07'815.7
2017-Sep-19 14:00N 36°41' W 008°58'815.6
2017-Sep-19 13:31N 36°39' W 008°49'815.1
2017-Sep-19 13:00N 36°36' W 008°40'715.1
2017-Sep-19 12:30N 36°34' W 008°31'815.4
2017-Sep-19 11:58N 36°31' W 008°21'715.6
2017-Sep-19 11:30N 36°29' W 008°13'915.6
2017-Sep-19 10:54N 36°27' W 008°01'1315.7
2017-Sep-19 10:05N 36°23' W 007°46'10415.4
2017-Sep-19 03:21N 35°57' W 005°42'613.5
2017-Sep-19 02:53N 35°57' W 005°34'4 0.2
2017-Sep-18 05:03N 35°54' W 005°35'4 2.1
2017-Sep-18 03:17N 35°57' W 005°32'1 4.5
2017-Sep-18 03:00N 35°58' W 005°32'4 7.4
2017-Sep-18 02:31N 35°59' W 005°28'713.7
2017-Sep-18 02:00N 36°01' W 005°20'713.7
2017-Sep-18 01:30N 36°02' W 005°11'21114.4
2017-Sep-17 10:55N 37°13' W 001°04'716.3
2017-Sep-17 10:30N 37°17' W 000°58'816.2
2017-Sep-17 10:00N 37°23' W 000°50'816.4
2017-Sep-17 09:30N 37°28' W 000°42'816.5
2017-Sep-17 09:00N 37°33' W 000°34'816.3
2017-Sep-17 08:30N 37°40' W 000°28'816.4
2017-Sep-17 08:00N 37°47' W 000°23'816.3
2017-Sep-17 07:30N 37°54' W 000°17'816.3
2017-Sep-17 07:00N 38°01' W 000°12'11716.8
2017-Sep-17 00:01N 39°42' E 001°04'016.8
2017-Sep-17 00:00N 39°42' E 001°04'917.4
2017-Sep-16 23:30N 39°50' E 001°10'917.3
2017-Sep-16 23:00N 39°57' E 001°15'917.4
2017-Sep-16 22:30N 40°05' E 001°20'917.6
2017-Sep-16 22:00N 40°13' E 001°25'917.3
2017-Sep-16 21:30N 40°21' E 001°30'816.9
2017-Sep-16 21:00N 40°28' E 001°35'816.7
2017-Sep-16 20:30N 40°35' E 001°41'816.6
2017-Sep-16 20:00N 40°43' E 001°46'816.5
2017-Sep-16 19:30N 40°50' E 001°52'816.8
2017-Sep-16 19:00N 40°57' E 001°57'816.7
2017-Sep-16 18:30N 41°05' E 002°02'816.6
2017-Sep-16 18:00N 41°12' E 002°07'7 0.5
2017-Sep-16 03:16N 41°18' E 002°11'1 4.3
2017-Sep-16 03:00N 41°17' E 002°11'1 2.8
2017-Sep-16 02:28N 41°16' E 002°12'4 7.6
2017-Sep-16 01:58N 41°13' E 002°15'6 0.7
2017-Sep-15 17:32N 41°12' E 002°23'716.4
2017-Sep-15 17:08N 41°09' E 002°31'217.0
2017-Sep-15 17:00N 41°08' E 002°33'917.2
2017-Sep-15 16:30N 41°04' E 002°43'917.2
2017-Sep-15 16:00N 40°59' E 002°53'917.2
2017-Sep-15 15:30N 40°55' E 003°03'816.2
2017-Sep-15 15:00N 40°51' E 003°12'815.3
2017-Sep-15 14:30N 40°48' E 003°21'27016.2
2017-Sep-14 21:51N 38°36' E 008°29'515.5
2017-Sep-14 21:30N 38°34' E 008°34'1015.7
2017-Sep-14 20:53N 38°29' E 008°45'3116.0
2017-Sep-14 18:58N 38°14' E 009°19'716.1
2017-Sep-14 18:30N 38°11' E 009°28'816.1
2017-Sep-14 18:00N 38°07' E 009°37'1016.2
2017-Sep-14 17:25N 38°03' E 009°48'716.3
2017-Sep-14 17:00N 37°59' E 009°55'10616.6
2017-Sep-14 10:37N 37°10' E 011°53'216.6
2017-Sep-14 10:30N 37°09' E 011°55'1316.6
2017-Sep-14 09:44N 37°05' E 012°10'516.2
2017-Sep-14 09:26N 37°04' E 012°16'716.0
2017-Sep-14 08:59N 37°01' E 012°25'816.0
2017-Sep-14 08:30N 36°59' E 012°34'815.8
2017-Sep-14 08:00N 36°56' E 012°43'815.8
2017-Sep-14 07:30N 36°53' E 012°52'815.8
2017-Sep-14 07:00N 36°51' E 013°02'816.0
2017-Sep-14 06:31N 36°48' E 013°11'816.5
2017-Sep-14 06:00N 36°46' E 013°21'815.6
2017-Sep-14 05:30N 36°44' E 013°30'815.3
2017-Sep-14 05:00N 36°41' E 013°39'715.0
2017-Sep-14 04:30N 36°39' E 013°48'815.0
2017-Sep-14 03:59N 36°36' E 013°57'715.3
2017-Sep-14 03:30N 36°34' E 014°06'815.6
2017-Sep-14 03:00N 36°32' E 014°15'815.4
2017-Sep-14 02:28N 36°29' E 014°25'715.0
2017-Sep-14 02:00N 36°28' E 014°34'815.4
2017-Sep-14 01:30N 36°26' E 014°43'815.4
2017-Sep-14 01:00N 36°25' E 014°52'815.5
2017-Sep-14 00:30N 36°25' E 015°02'915.5
2017-Sep-13 23:56N 36°24' E 015°13'716.1
2017-Sep-13 23:30N 36°24' E 015°22'816.4
2017-Sep-13 23:00N 36°23' E 015°32'816.3
2017-Sep-13 22:30N 36°23' E 015°42'816.2
2017-Sep-13 21:59N 36°23' E 015°52'1016.0
2017-Sep-13 21:21N 36°22' E 016°05'37914.7
2017-Sep-12 19:31N 36°60' E 023°54'116.5
2017-Sep-12 19:28N 37°00' E 023°55'816.3
2017-Sep-12 19:00N 37°07' E 024°01'816.2
2017-Sep-12 18:31N 37°13' E 024°06'815.8
2017-Sep-12 18:01N 37°19' E 024°12'915.4
2017-Sep-12 17:27N 37°26' E 024°19'14915.8
2017-Sep-12 08:03N 39°40' E 025°42'1416.9
2017-Sep-12 07:13N 39°52' E 025°50'10614.3
2017-Sep-11 23:47N 40°47' E 027°49'  

Dump ship's entire track history